Time;durP1;ratioP1;P1;durP2;ratioP2;P2;SDS_P1;SDS_P2;PMS_P1;PMS_P2;Temp;Humidity;BMP_temperature;BMP_pressure;BME280_temperature;BME280_humidity;BME280_pressure;Samples;Min_cycle;Max_cycle;Signal;HPM_P1;HPM_P2
2022/07/23 00:00:59;;;;;;;13.60;12.20;;;;;;;19.58;93.50;96344.09;5073119;28;20535;-74
2022/07/23 00:03:27;;;;;;;11.47;10.50;;;;;;;19.72;92.74;96346.78;5073729;28;20475;-74
2022/07/23 00:05:53;;;;;;;11.00;10.10;;;;;;;19.63;92.16;96330.31;5073866;28;20435;-75
2022/07/23 00:08:20;;;;;;;10.67;9.80;;;;;;;19.53;95.44;96350.59;5074501;28;20471;-74
2022/07/23 00:10:47;;;;;;;11.70;10.60;;;;;;;19.10;99.53;96313.06;5088155;28;20443;-73
2022/07/23 00:13:14;;;;;;;13.37;12.17;;;;;;;19.39;100.00;96348.69;5095896;28;20435;-73
2022/07/23 00:15:40;;;;;;;11.93;10.70;;;;;;;18.95;98.42;96281.25;5094201;28;20480;-74
2022/07/23 00:18:07;;;;;;;12.43;11.13;;;;;;;19.49;97.96;96355.94;5068769;28;20850;-74
2022/07/23 00:20:34;;;;;;;11.70;10.47;;;;;;;19.37;97.58;96328.78;5088774;28;20494;-74
2022/07/23 00:23:00;;;;;;;11.47;10.57;;;;;;;19.25;100.00;96375.50;5109166;28;20425;-74
2022/07/23 00:25:27;;;;;;;13.23;10.93;;;;;;;19.45;100.00;96411.50;5090646;28;20428;-74
2022/07/23 00:27:58;;;;;;;15.73;11.80;;;;;;;19.24;99.71;96432.19;5075786;28;20424;-74
2022/07/23 00:30:25;;;;;;;26.80;13.85;;;;;;;-146.72;100.00;64895.28;5070850;28;20556;-73
2022/07/23 00:32:56;;;;;;;22.23;13.23;;;;;;;-146.72;100.00;64895.28;5082329;28;20189;-73
2022/07/23 00:35:25;;;;;;;21.13;14.40;;;;;;;-146.72;100.00;64895.28;5091919;28;20495;-74
2022/07/23 00:37:53;;;;;;;21.37;12.80;;;;;;;-146.72;100.00;64895.28;5091182;28;20486;-74
2022/07/23 00:40:20;;;;;;;20.40;14.03;;;;;;;-146.72;100.00;64895.28;5075066;28;20943;-75
2022/07/23 00:42:47;;;;;;;22.57;11.93;;;;;;;-146.72;100.00;64895.28;5092156;28;20427;-74
2022/07/23 00:45:14;;;;;;;17.70;14.30;;;;;;;-146.72;100.00;64895.28;5091879;28;20493;-74
2022/07/23 03:41:32;;;;;;;16.13;14.20;;;;;;;-146.72;100.00;64895.28;5070499;28;20440;-73
2022/07/23 03:43:59;;;;;;;15.30;13.90;;;;;;;-146.72;100.00;64895.28;5080463;28;20502;-73
2022/07/23 03:46:25;;;;;;;19.60;14.23;;;;;;;-146.72;100.00;64895.28;5051591;28;20432;-73
2022/07/23 03:48:53;;;;;;;16.43;14.90;;;;;;;-146.72;100.00;64895.28;5056655;28;20494;-73
2022/07/23 03:51:24;;;;;;;16.10;13.77;;;;;;;-146.72;100.00;64895.28;5078556;28;20439;-73
2022/07/23 03:53:51;;;;;;;20.10;15.10;;;;;;;-146.72;100.00;64895.28;5072864;28;20424;-73
2022/07/23 03:56:18;;;;;;;16.43;14.80;;;;;;;-146.72;100.00;64895.28;5056148;28;20472;-73
2022/07/23 03:58:44;;;;;;;17.93;16.23;;;;;;;-146.72;100.00;64895.28;5068032;28;20465;-73
2022/07/23 04:01:11;;;;;;;15.17;13.57;;;;;;;-146.72;100.00;64895.28;5081160;28;20427;-73
2022/07/23 04:03:39;;;;;;;15.70;14.30;;;;;;;-146.72;100.00;64895.28;5092741;28;20442;-73
2022/07/23 04:06:06;;;;;;;16.37;14.87;;;;;;;-146.72;100.00;64895.28;5075837;28;20440;-73
2022/07/23 04:08:34;;;;;;;17.50;16.00;;;;;;;-146.72;100.00;64895.28;5076108;28;20464;-73
2022/07/23 04:11:03;;;;;;;17.87;15.97;;;;;;;-146.72;100.00;64895.28;5075951;28;20539;-73
2022/07/23 04:13:30;;;;;;;16.60;15.00;;;;;;;-146.72;100.00;64895.28;5092766;28;20489;-73
2022/07/23 04:15:56;;;;;;;18.53;16.50;;;;;;;-146.72;100.00;64895.28;5090161;28;20870;-73
2022/07/23 04:18:23;;;;;;;19.30;17.30;;;;;;;-146.72;100.00;64895.28;5073622;28;20478;-73
2022/07/23 04:21:01;;;;;;;16.97;15.67;;;;;;;-146.72;100.00;64895.28;5072414;28;20440;-73
2022/07/23 04:23:28;;;;;;;20.43;15.50;;;;;;;-146.72;100.00;64895.28;5074225;28;20448;-73
2022/07/23 04:25:55;;;;;;;17.43;15.73;;;;;;;-146.72;100.00;64895.28;5073311;28;20413;-73
2022/07/23 04:28:23;;;;;;;18.27;16.10;;;;;;;-146.72;100.00;64895.28;5090127;28;20468;-73
2022/07/23 04:30:49;;;;;;;18.63;16.63;;;;;;;-146.72;100.00;64895.28;5074667;28;20950;-73
2022/07/23 04:33:17;;;;;;;16.87;15.27;;;;;;;-146.72;100.00;64895.28;5081682;28;20519;-74
2022/07/23 04:35:46;;;;;;;16.80;15.10;;;;;;;-146.72;100.00;64895.28;5071811;28;20472;-74
2022/07/23 04:38:18;;;;;;;17.03;15.40;;;;;;;-146.72;100.00;64895.28;5056449;28;20459;-73
2022/07/23 04:40:46;;;;;;;16.60;15.00;;;;;;;-146.72;100.00;64895.28;5072175;28;20444;-73
2022/07/23 04:43:13;;;;;;;17.47;15.80;;;;;;;-146.72;100.00;64895.28;5088729;28;20428;-73
2022/07/23 04:45:44;;;;;;;16.97;15.37;;;;;;;-146.72;100.00;64895.28;5088410;28;20437;-73
2022/07/23 04:48:11;;;;;;;15.50;14.07;;;;;;;-146.72;100.00;64895.28;5054921;28;20979;-73
2022/07/23 04:50:38;;;;;;;16.73;15.03;;;;;;;-146.72;100.00;64895.28;5084571;28;20459;-73
2022/07/23 04:53:14;;;;;;;19.50;15.40;;;;;;;-146.72;100.00;64895.28;5071765;28;20962;-73
2022/07/23 04:55:41;;;;;;;17.20;15.43;;;;;;;-146.72;100.00;64895.28;5071358;28;20464;-73
2022/07/23 04:58:08;;;;;;;17.80;16.20;;;;;;;-146.72;100.00;64895.28;5071311;28;20452;-73
2022/07/23 05:00:35;;;;;;;17.63;15.90;;;;;;;-146.72;100.00;64895.28;5071508;28;20440;-73
2022/07/23 05:03:02;;;;;;;18.40;16.43;;;;;;;-146.72;100.00;64895.28;5071479;28;20470;-73
2022/07/23 05:05:29;;;;;;;18.60;16.67;;;;;;;-146.72;100.00;64895.28;5075666;28;20465;-73
2022/07/23 05:08:02;;;;;;;18.77;16.87;;;;;;;-146.72;100.00;64895.28;5075907;28;20590;-73
2022/07/23 05:10:29;;;;;;;17.20;15.60;;;;;;;-146.72;100.00;64895.28;5055948;28;20863;-73
2022/07/23 05:12:56;;;;;;;17.70;15.97;;;;;;;-146.72;100.00;64895.28;5054697;28;20440;-73
2022/07/23 05:15:23;;;;;;;19.37;17.43;;;;;;;-146.72;100.00;64895.28;5072350;28;20467;-73
2022/07/23 05:17:49;;;;;;;18.17;16.27;;;;;;;-146.72;100.00;64895.28;5067152;28;20952;-73
2022/07/23 05:20:17;;;;;;;17.10;15.50;;;;;;;-146.72;100.00;64895.28;5091199;28;20447;-73
2022/07/23 05:22:44;;;;;;;18.43;16.53;;;;;;;-146.72;100.00;64895.28;5074425;28;20846;-73
2022/07/23 05:25:11;;;;;;;19.30;17.60;;;;;;;-146.72;100.00;64895.28;5091017;28;20463;-73
2022/07/23 05:27:38;;;;;;;18.40;16.80;;;;;;;-146.72;100.00;64895.28;5074323;28;20909;-73
2022/07/23 05:30:05;;;;;;;22.60;17.67;;;;;;;-146.72;100.00;64895.28;5074054;28;20456;-73
2022/07/23 05:32:36;;;;;;;19.20;17.13;;;;;;;-146.72;100.00;64895.28;5074571;28;20529;-73
2022/07/23 05:35:12;;;;;;;19.03;16.20;;;;;;;-146.72;100.00;64895.28;5091047;28;20521;-73
2022/07/23 05:37:45;;;;;;;18.27;16.67;;;;;;;-146.72;100.00;64895.28;5090800;28;20463;-73
2022/07/23 05:40:13;;;;;;;18.90;17.10;;;;;;;-146.72;100.00;64895.28;5091054;28;20497;-74
2022/07/23 05:42:41;;;;;;;18.17;16.50;;;;;;;-146.72;100.00;64895.28;5089114;28;20456;-74
2022/07/23 05:45:08;;;;;;;19.23;17.33;;;;;;;-146.72;100.00;64895.28;5086938;28;20440;-75
2022/07/23 05:47:43;;;;;;;18.60;16.80;;;;;;;-146.72;100.00;64895.28;5087367;28;20433;-74
2022/07/23 05:50:12;;;;;;;19.60;17.80;;;;;;;-146.72;100.00;64895.28;5096683;28;20447;-74
2022/07/23 05:52:46;;;;;;;20.27;18.37;;;;;;;-146.72;100.00;64895.28;5076050;28;20428;-75
2022/07/23 05:55:33;;;;;;;18.07;16.40;;;;;;;-146.72;100.00;64895.28;5064209;28;20507;-75
2022/07/23 05:58:00;;;;;;;18.00;16.50;;;;;;;-146.72;100.00;64895.28;5071427;28;20444;-75
2022/07/23 06:00:28;;;;;;;17.60;15.77;;;;;;;-146.72;100.00;64895.28;5074103;28;20432;-75
2022/07/23 06:02:55;;;;;;;18.80;16.87;;;;;;;-146.72;100.00;64895.28;5090528;28;20469;-75
2022/07/23 06:05:23;;;;;;;18.00;16.40;;;;;;;-146.72;100.00;64895.28;5090818;28;20540;-75
2022/07/23 06:07:53;;;;;;;17.20;15.60;;;;;;;-146.72;100.00;64895.28;5074391;28;20444;-75
2022/07/23 06:10:20;;;;;;;17.43;15.90;;;;;;;-146.72;100.00;64895.28;5074073;28;20462;-75
2022/07/23 06:12:47;;;;;;;19.60;17.90;;;;;;;-146.72;100.00;64895.28;5074056;28;20515;-74
2022/07/23 06:15:15;;;;;;;19.83;16.00;;;;;;;-146.72;100.00;64895.28;5073805;28;20537;-74
2022/07/23 06:17:41;;;;;;;17.83;16.33;;;;;;;-146.72;100.00;64895.28;5073745;28;20521;-74
2022/07/23 06:20:09;;;;;;;17.60;16.10;;;;;;;-146.72;100.00;64895.28;5090804;28;20470;-75
2022/07/23 06:22:38;;;;;;;16.33;14.83;;;;;;;-146.72;100.00;64895.28;5074246;28;20451;-75
2022/07/23 06:25:05;;;;;;;17.23;15.73;;;;;;;-146.72;100.00;64895.28;5074297;28;20440;-75
2022/07/23 06:27:40;;;;;;;17.37;15.83;;;;;;;-146.72;100.00;64895.28;5073090;28;20413;-74
2022/07/23 06:30:08;;;;;;;16.60;15.20;;;;;;;-146.72;100.00;64895.28;5071297;28;20461;-74
2022/07/23 06:32:37;;;;;;;16.60;15.20;;;;;;;-146.72;100.00;64895.28;5070310;28;20468;-74
2022/07/23 06:35:04;;;;;;;16.23;14.73;;;;;;;-146.72;100.00;64895.28;5070396;28;20446;-74
2022/07/23 06:37:31;;;;;;;16.33;14.80;;;;;;;-146.72;100.00;64895.28;5070044;28;20543;-74
2022/07/23 06:40:00;;;;;;;18.40;14.60;;;;;;;-146.72;100.00;64895.28;5069972;28;20870;-74
2022/07/23 06:42:28;;;;;;;15.57;14.27;;;;;;;-146.72;100.00;64895.28;5070015;28;21098;-74
2022/07/23 06:44:57;;;;;;;16.17;14.47;;;;;;;-146.72;100.00;64895.28;5053847;28;20523;-74
2022/07/23 06:47:25;;;;;;;14.13;12.73;;;;;;;-146.72;100.00;64895.28;5077236;28;20440;-74
2022/07/23 06:49:51;;;;;;;12.30;11.30;;;;;;;-146.72;100.00;64895.28;5072369;28;20482;-74
2022/07/23 06:52:18;;;;;;;15.53;14.17;;;;;;;-146.72;100.00;64895.28;5071382;28;20435;-75
2022/07/23 06:54:45;;;;;;;10.67;9.77;;;;;;;-146.72;100.00;64895.28;5073798;28;20444;-74
2022/07/23 06:57:12;;;;;;;10.83;9.73;;;;;;;-146.72;100.00;64895.28;5073302;28;20456;-74
2022/07/23 06:59:40;;;;;;;10.83;9.80;;;;;;;-146.72;100.00;64895.28;5077728;28;20885;-74
2022/07/23 07:02:08;;;;;;;11.90;10.10;;;;;;;-146.72;100.00;64895.28;5077477;28;20547;-75
2022/07/23 07:04:35;;;;;;;12.67;7.90;;;;;;;-146.72;100.00;64895.28;5075307;28;20468;-75
2022/07/23 07:07:02;;;;;;;8.60;7.70;;;;;;;-146.72;100.00;64895.28;5076777;28;20473;-75
2022/07/23 07:09:29;;;;;;;8.70;7.83;;;;;;;-146.72;100.00;64895.28;5083960;28;20476;-74
2022/07/23 07:11:56;;;;;;;9.93;8.90;;;;;;;-146.72;100.00;64895.28;5075301;28;20920;-75
2022/07/23 07:14:23;;;;;;;9.57;8.60;;;;;;;-146.72;100.00;64895.28;5095399;28;20431;-75
2022/07/23 07:16:49;;;;;;;8.57;7.87;;;;;;;-146.72;100.00;64895.28;5077302;28;20536;-75
2022/07/23 07:19:16;;;;;;;9.10;8.30;;;;;;;-146.72;100.00;64895.28;5095011;28;20458;-75
2022/07/23 07:21:43;;;;;;;8.33;7.37;;;;;;;-146.72;100.00;64895.28;5093639;28;20435;-75
2022/07/23 07:24:10;;;;;;;9.20;8.30;;;;;;;-146.72;100.00;64895.28;5060705;28;20437;-75
2022/07/23 07:26:38;;;;;;;9.33;8.43;;;;;;;-146.72;100.00;64895.28;5090759;28;20463;-75
2022/07/23 07:29:05;;;;;;;7.63;6.93;;;;;;;-146.72;100.00;64895.28;5073543;28;20456;-76
2022/07/23 07:31:32;;;;;;;9.30;8.50;;;;;;;-146.72;100.00;64895.28;5083897;28;20770;-76
2022/07/23 07:33:59;;;;;;;11.03;10.03;;;;;;;-146.72;100.00;64895.28;5091466;28;20424;-75
2022/07/23 07:36:26;;;;;;;11.87;10.87;;;;;;;-146.72;100.00;64895.28;5062901;28;20840;-75
2022/07/23 07:38:52;;;;;;;9.40;8.40;;;;;;;-146.72;100.00;64895.28;5073642;28;20486;-76
2022/07/23 07:41:23;;;;;;;8.73;7.93;;;;;;;-146.72;100.00;64895.28;5076439;28;20493;-75
2022/07/23 07:43:51;;;;;;;8.43;7.73;;;;;;;-146.72;100.00;64895.28;5074674;28;20862;-75
2022/07/23 07:46:17;;;;;;;8.80;8.10;;;;;;;-146.72;100.00;64895.28;5085055;28;20849;-75
2022/07/23 07:48:44;;;;;;;10.10;8.43;;;;;;;-146.72;100.00;64895.28;5080085;28;20513;-75
2022/07/23 07:51:11;;;;;;;10.60;9.50;;;;;;;-146.72;100.00;64895.28;5064709;28;20428;-76
2022/07/23 07:53:38;;;;;;;9.53;8.60;;;;;;;-146.72;100.00;64895.28;5056549;28;20437;-76
2022/07/23 07:56:05;;;;;;;11.60;10.60;;;;;;;-146.72;100.00;64895.28;5068311;28;20431;-76
2022/07/23 07:58:33;;;;;;;9.13;8.43;;;;;;;-146.72;100.00;64895.28;5093325;28;20453;-76
2022/07/23 08:01:02;;;;;;;10.13;9.30;;;;;;;-146.72;100.00;64895.28;5094123;28;20428;-76
2022/07/23 08:03:29;;;;;;;8.57;7.87;;;;;;;-146.72;100.00;64895.28;5066057;28;20513;-76
2022/07/23 08:05:56;;;;;;;10.03;9.07;;;;;;;-146.72;100.00;64895.28;5065422;28;20444;-76
2022/07/23 08:08:23;;;;;;;8.40;7.77;;;;;;;-146.72;100.00;64895.28;5059111;28;20465;-76
2022/07/23 08:10:50;;;;;;;9.60;8.90;;;;;;;-146.72;100.00;64895.28;5089423;28;20448;-76
2022/07/23 08:13:17;;;;;;;8.53;7.83;;;;;;;-146.72;100.00;64895.28;5069369;28;20437;-76
2022/07/23 08:15:44;;;;;;;8.57;7.87;;;;;;;-146.72;100.00;64895.28;5056150;28;20531;-77
2022/07/23 08:18:12;;;;;;;9.40;8.60;;;;;;;-146.72;100.00;64895.28;5073751;28;20507;-76
2022/07/23 08:20:39;;;;;;;9.83;8.90;;;;;;;-146.72;100.00;64895.28;5069285;28;20534;-76
2022/07/23 08:23:08;;;;;;;10.97;8.50;;;;;;;-146.72;100.00;64895.28;5087112;28;20463;-76
2022/07/23 08:25:40;;;;;;;9.50;8.70;;;;;;;-146.72;100.00;64895.28;5072117;28;20445;-75
2022/07/23 08:28:09;;;;;;;9.33;8.63;;;;;;;-146.72;100.00;64895.28;5072312;28;20487;-75
2022/07/23 08:30:37;;;;;;;9.03;8.40;;;;;;;-146.72;100.00;64895.28;5072869;28;20471;-75
2022/07/23 08:33:04;;;;;;;9.97;9.17;;;;;;;-146.72;100.00;64895.28;5073828;28;20429;-75
2022/07/23 08:35:36;;;;;;;10.70;9.20;;;;;;;-146.72;100.00;64895.28;5073544;28;20446;-75
2022/07/23 08:38:05;;;;;;;9.43;8.43;;;;;;;-146.72;100.00;64895.28;5072861;28;20484;-75
2022/07/23 08:40:35;;;;;;;9.80;8.63;;;;;;;-146.72;100.00;64895.28;5072099;28;20533;-75
2022/07/23 08:43:13;;;;;;;9.60;8.80;;;;;;;-146.72;100.00;64895.28;5071990;28;20518;-75
2022/07/23 08:45:42;;;;;;;8.53;7.60;;;;;;;-146.72;100.00;64895.28;5071675;28;20432;-75
2022/07/23 08:48:15;;;;;;;9.20;8.43;;;;;;;-146.72;100.00;64895.28;5055517;28;20459;-75
2022/07/23 08:50:45;;;;;;;8.30;7.50;;;;;;;-146.72;100.00;64895.28;5084168;28;20468;-75
2022/07/23 08:53:13;;;;;;;8.17;7.47;;;;;;;-146.72;100.00;64895.28;5071813;28;20461;-75
2022/07/23 08:55:43;;;;;;;9.17;8.30;;;;;;;-146.72;100.00;64895.28;5090836;28;20425;-75
2022/07/23 08:58:10;;;;;;;9.10;8.30;;;;;;;-146.72;100.00;64895.28;5054833;28;20571;-75
2022/07/23 09:00:36;;;;;;;8.40;7.70;;;;;;;-146.72;100.00;64895.28;5070601;28;21001;-75
2022/07/23 09:03:03;;;;;;;8.63;7.90;;;;;;;-146.72;100.00;64895.28;5054901;28;21112;-74
2022/07/23 09:05:30;;;;;;;8.63;7.87;;;;;;;-146.72;100.00;64895.28;5072922;28;20424;-76
2022/07/23 09:08:03;;;;;;;9.40;8.23;;;;;;;-146.72;100.00;64895.28;5075802;28;20462;-76
2022/07/23 09:10:42;;;;;;;8.63;8.03;;;;;;;-146.72;100.00;64895.28;5094334;28;20456;-75
2022/07/23 09:13:30;;;;;;;8.73;7.83;;;;;;;-146.72;100.00;64895.28;5096017;28;20446;-74
2022/07/23 09:16:04;;;;;;;8.60;7.70;;;;;;;-146.72;100.00;64895.28;5076365;28;20851;-75
2022/07/23 09:18:41;;;;;;;8.00;7.23;;;;;;;-146.72;100.00;64895.28;5088068;28;20529;-75
2022/07/23 09:21:19;;;;;;;8.40;7.70;;;;;;;-146.72;100.00;64895.28;5072433;28;20428;-75
2022/07/23 09:23:54;;;;;;;8.80;8.00;;;;;;;-146.72;100.00;64895.28;5067152;28;20449;-75
2022/07/23 09:26:26;;;;;;;8.53;7.33;;;;;;;-146.72;100.00;64895.28;5073992;28;20446;-75
2022/07/23 09:29:02;;;;;;;9.00;8.20;;;;;;;-146.72;100.00;64895.28;5090702;28;20471;-75
2022/07/23 09:31:47;;;;;;;9.67;8.90;;;;;;;-146.72;100.00;64895.28;5074068;28;20862;-75
2022/07/23 09:34:19;;;;;;;8.33;7.63;;;;;;;-146.72;100.00;64895.28;5090734;28;20428;-75
2022/07/23 09:36:47;;;;;;;8.67;7.83;;;;;;;-146.72;100.00;64895.28;5090470;28;20428;-75
2022/07/23 09:39:15;;;;;;;9.80;9.00;;;;;;;-146.72;100.00;64895.28;5073621;28;20459;-76
2022/07/23 09:41:44;;;;;;;9.00;8.20;;;;;;;-146.72;100.00;64895.28;5089616;28;20432;-75
2022/07/23 09:44:15;;;;;;;9.97;9.13;;;;;;;-146.72;100.00;64895.28;5087109;28;20948;-75
2022/07/23 09:46:50;;;;;;;9.10;8.20;;;;;;;-146.72;100.00;64895.28;5070235;28;20486;-75
2022/07/23 09:49:22;;;;;;;8.03;7.30;;;;;;;-146.72;100.00;64895.28;5080815;28;20499;-76
2022/07/23 09:51:54;;;;;;;9.40;8.60;;;;;;;-146.72;100.00;64895.28;5073923;28;20420;-75
2022/07/23 09:54:32;;;;;;;9.40;8.60;;;;;;;-146.72;100.00;64895.28;5098205;28;20473;-75
2022/07/23 09:57:03;;;;;;;9.37;8.47;;;;;;;-146.72;100.00;64895.28;5110278;28;20455;-75
2022/07/23 09:59:34;;;;;;;9.87;8.97;;;;;;;-146.72;100.00;64895.28;5113058;28;20461;-75
2022/07/23 10:02:01;;;;;;;8.90;8.10;;;;;;;-146.72;100.00;64895.28;5109713;28;20408;-75
2022/07/23 10:04:34;;;;;;;12.43;8.77;;;;;;;-146.72;100.00;64895.28;5090025;28;20519;-75
2022/07/23 10:07:20;;;;;;;8.63;7.93;;;;;;;-146.72;100.00;64895.28;5055855;28;20435;-75
2022/07/23 10:10:06;;;;;;;9.40;7.90;;;;;;;-146.72;100.00;64895.28;5071694;28;20439;-75
2022/07/23 10:15:30;;;;;;;7.90;7.20;;;;;;;-146.72;100.00;64895.28;5069911;28;20510;-75
2022/07/23 10:17:57;;;;;;;8.83;7.93;;;;;;;-146.72;100.00;64895.28;5069734;28;20460;-74
2022/07/23 10:20:24;;;;;;;8.40;7.63;;;;;;;-146.72;100.00;64895.28;5071179;28;20456;-75
2022/07/23 10:23:20;;;;;;;8.60;7.90;;;;;;;-146.72;100.00;64895.28;5069853;28;20433;-76
2022/07/23 10:26:12;;;;;;;10.23;8.73;;;;;;;-146.72;100.00;64895.28;5069910;28;20428;-75
2022/07/23 10:29:05;;;;;;;8.50;7.80;;;;;;;-146.72;100.00;64895.28;5069373;28;20521;-75
2022/07/23 10:31:48;;;;;;;8.23;7.63;;;;;;;-146.72;100.00;64895.28;5066275;28;20543;-75
2022/07/23 10:34:58;;;;;;;9.47;8.67;;;;;;;-146.72;100.00;64895.28;5069686;28;20523;-75
2022/07/23 10:37:34;;;;;;;9.40;8.50;;;;;;;-146.72;100.00;64895.28;5069665;28;20456;-75
2022/07/23 10:40:19;;;;;;;8.50;7.80;;;;;;;-146.72;100.00;64895.28;5069690;28;20448;-75
2022/07/23 10:42:50;;;;;;;9.50;8.80;;;;;;;-146.72;100.00;64895.28;5069736;28;20436;-75
2022/07/23 10:45:29;;;;;;;10.00;9.17;;;;;;;-146.72;100.00;64895.28;5060378;28;20931;-75
2022/07/23 10:48:20;;;;;;;8.93;8.03;;;;;;;-146.72;100.00;64895.28;5089912;28;20420;-74
2022/07/23 10:51:06;;;;;;;8.23;7.60;;;;;;;-146.72;100.00;64895.28;5082246;28;20448;-74
2022/07/23 10:53:59;;;;;;;9.60;8.70;;;;;;;-146.72;100.00;64895.28;5069501;28;20565;-74
2022/07/23 10:56:56;;;;;;;8.20;7.50;;;;;;;-146.72;100.00;64895.28;5061576;28;20767;-75
2022/07/23 10:59:22;;;;;;;8.07;7.27;;;;;;;-146.72;100.00;64895.28;5052888;28;20472;-74
2022/07/23 11:01:50;;;;;;;9.23;8.43;;;;;;;-146.72;100.00;64895.28;5089200;28;20535;-74
2022/07/23 11:04:18;;;;;;;8.47;7.57;;;;;;;-146.72;100.00;64895.28;5089660;28;20428;-74
2022/07/23 11:06:47;;;;;;;8.23;7.57;;;;;;;-146.72;100.00;64895.28;5089596;28;20443;-75
2022/07/23 11:09:37;;;;;;;8.20;7.60;;;;;;;-146.72;100.00;64895.28;5075853;28;20452;-75
2022/07/23 11:12:14;;;;;;;9.67;8.73;;;;;;;-146.72;100.00;64895.28;5070829;28;20452;-75
2022/07/23 11:14:59;;;;;;;10.20;9.30;;;;;;;-146.72;100.00;64895.28;5070635;28;20446;-74
2022/07/23 11:17:27;;;;;;;8.70;7.93;;;;;;;-146.72;100.00;64895.28;5069243;28;20495;-75
2022/07/23 11:20:09;;;;;;;8.87;8.07;;;;;;;-146.72;100.00;64895.28;5086041;28;20476;-75
2022/07/23 11:22:39;;;;;;;9.33;8.37;;;;;;;-146.72;100.00;64895.28;5068939;28;20471;-74
2022/07/23 11:25:06;;;;;;;8.77;7.97;;;;;;;-146.72;100.00;64895.28;5090855;28;20427;-74
2022/07/23 11:27:41;;;;;;;9.63;8.83;;;;;;;-146.72;100.00;64895.28;5086013;28;20417;-75
2022/07/23 11:30:09;;;;;;;10.17;9.27;;;;;;;-146.72;100.00;64895.28;5069159;28;20951;-74
2022/07/23 11:32:40;;;;;;;8.97;8.20;;;;;;;-146.72;100.00;64895.28;5090699;28;20920;-74
2022/07/23 11:35:21;;;;;;;9.57;8.77;;;;;;;-146.72;100.00;64895.28;5081723;28;20424;-74
2022/07/23 11:37:48;;;;;;;8.67;7.87;;;;;;;-146.72;100.00;64895.28;5078431;28;20521;-74
2022/07/23 11:40:16;;;;;;;9.47;8.67;;;;;;;-146.72;100.00;64895.28;5080737;28;20954;-74
2022/07/23 11:42:56;;;;;;;10.40;9.43;;;;;;;-146.72;100.00;64895.28;5082709;28;20425;-74
2022/07/23 11:45:29;;;;;;;10.53;9.60;;;;;;;-146.72;100.00;64895.28;5073732;28;20793;-74
2022/07/23 11:47:56;;;;;;;10.23;9.33;;;;;;;-146.72;100.00;64895.28;5072672;28;20816;-75
2022/07/23 11:50:24;;;;;;;11.80;8.70;;;;;;;-146.72;100.00;64895.28;5081100;28;20472;-74
2022/07/23 11:52:52;;;;;;;10.37;9.60;;;;;;;-146.72;100.00;64895.28;5060679;28;20430;-74
2022/07/23 11:55:19;;;;;;;9.93;9.13;;;;;;;-146.72;100.00;64895.28;5071221;28;20874;-75
2022/07/23 11:57:46;;;;;;;9.30;8.40;;;;;;;-146.72;100.00;64895.28;5072530;28;20858;-75
2022/07/23 12:00:17;;;;;;;10.57;9.47;;;;;;;-146.72;100.00;64895.28;5072231;28;20440;-75
2022/07/23 12:02:49;;;;;;;11.27;9.30;;;;;;;-146.72;100.00;64895.28;5072265;28;20436;-74
2022/07/23 12:05:19;;;;;;;8.67;7.97;;;;;;;-146.72;100.00;64895.28;5073683;28;20424;-74
2022/07/23 12:07:50;;;;;;;10.47;9.57;;;;;;;-146.72;100.00;64895.28;5053267;28;20484;-75
2022/07/23 12:10:41;;;;;;;9.50;8.80;;;;;;;-146.72;100.00;64895.28;5072161;28;20444;-74
2022/07/23 12:13:13;;;;;;;9.53;8.63;;;;;;;-146.72;100.00;64895.28;5072285;28;20546;-74
2022/07/23 12:15:46;;;;;;;9.30;8.60;;;;;;;-146.72;100.00;64895.28;5071882;28;20494;-74
2022/07/23 12:18:22;;;;;;;9.70;8.90;;;;;;;-146.72;100.00;64895.28;5071721;28;20472;-74
2022/07/23 12:20:51;;;;;;;8.37;7.57;;;;;;;-146.72;100.00;64895.28;5071965;28;20472;-74
2022/07/23 12:23:20;;;;;;;9.13;8.33;;;;;;;-146.72;100.00;64895.28;5071877;28;20471;-74
2022/07/23 12:25:48;;;;;;;8.90;8.30;;;;;;;-146.72;100.00;64895.28;5055342;28;20436;-74
2022/07/23 12:28:22;;;;;;;9.50;8.70;;;;;;;-146.72;100.00;64895.28;5071762;28;20449;-74
2022/07/23 12:30:52;;;;;;;9.27;8.57;;;;;;;-146.72;100.00;64895.28;5088806;28;20451;-74
2022/07/23 12:33:23;;;;;;;9.03;8.23;;;;;;;-146.72;100.00;64895.28;5071872;28;20432;-74
2022/07/23 12:35:50;;;;;;;9.40;8.60;;;;;;;-146.72;100.00;64895.28;5071781;28;20441;-74
2022/07/23 12:38:20;;;;;;;10.10;9.20;;;;;;;-146.72;100.00;64895.28;5055063;28;20475;-74
2022/07/23 12:40:53;;;;;;;8.07;7.40;;;;;;;-146.72;100.00;64895.28;5071579;28;20812;-74
2022/07/23 12:43:25;;;;;;;9.70;8.90;;;;;;;-146.72;100.00;64895.28;5071541;28;20952;-74
2022/07/23 12:45:52;;;;;;;10.77;9.87;;;;;;;-146.72;100.00;64895.28;5071750;28;20820;-74
2022/07/23 12:48:22;;;;;;;9.70;8.93;;;;;;;-146.72;100.00;64895.28;5071489;28;20480;-76
2022/07/23 12:50:58;;;;;;;9.93;9.13;;;;;;;-146.72;100.00;64895.28;5072816;28;20452;-76
2022/07/23 12:53:45;;;;;;;9.13;8.30;;;;;;;-146.72;100.00;64895.28;5084380;28;20460;-76
2022/07/23 12:56:16;;;;;;;10.20;9.30;;;;;;;-146.72;100.00;64895.28;5091594;28;20459;-76
2022/07/23 12:58:50;;;;;;;8.80;8.10;;;;;;;-146.72;100.00;64895.28;5091324;28;20468;-76
2022/07/23 13:01:33;;;;;;;11.10;9.10;;;;;;;-146.72;100.00;64895.28;5076441;28;20442;-76
2022/07/23 13:04:14;;;;;;;7.80;7.17;;;;;;;-146.72;100.00;64895.28;5074741;28;20463;-76
2022/07/23 13:07:03;;;;;;;8.77;8.13;;;;;;;-146.72;100.00;64895.28;5092662;28;20834;-76
2022/07/23 13:09:33;;;;;;;9.13;8.43;;;;;;;-146.72;100.00;64895.28;5091139;28;20452;-76
2022/07/23 13:12:08;;;;;;;9.67;8.70;;;;;;;-146.72;100.00;64895.28;5092608;28;20424;-74
2022/07/23 13:14:37;;;;;;;8.90;8.10;;;;;;;-146.72;100.00;64895.28;5091162;28;20958;-74
2022/07/23 13:17:05;;;;;;;9.20;7.90;;;;;;;-146.72;100.00;64895.28;5091089;28;20466;-75
2022/07/23 13:19:32;;;;;;;9.33;8.43;;;;;;;-146.72;100.00;64895.28;5090775;28;20705;-74
2022/07/23 13:22:00;;;;;;;8.73;8.03;;;;;;;-146.72;100.00;64895.28;5081056;28;20511;-74
2022/07/23 13:24:35;;;;;;;10.00;9.07;;;;;;;-146.72;100.00;64895.28;5077604;28;20839;-75
2022/07/23 13:27:06;;;;;;;11.00;10.00;;;;;;;-146.72;100.00;64895.28;5090895;28;20444;-75
2022/07/23 13:29:33;;;;;;;8.77;8.07;;;;;;;-146.72;100.00;64895.28;5067529;28;20520;-75
2022/07/23 13:32:02;;;;;;;8.73;8.07;;;;;;;-146.72;100.00;64895.28;5087470;28;20433;-75
2022/07/23 13:34:39;;;;;;;9.80;8.97;;;;;;;-146.72;100.00;64895.28;5075439;28;20990;-74
2022/07/23 13:37:06;;;;;;;8.70;7.90;;;;;;;-146.72;100.00;64895.28;5094370;28;20434;-74
2022/07/23 13:39:36;;;;;;;9.13;8.43;;;;;;;-146.72;100.00;64895.28;5072500;28;20473;-74
2022/07/23 13:42:04;;;;;;;9.90;9.00;;;;;;;-146.72;100.00;64895.28;5077391;28;20544;-74
2022/07/23 13:44:34;;;;;;;10.20;9.30;;;;;;;-146.72;100.00;64895.28;5063466;28;20440;-75
2022/07/23 13:47:02;;;;;;;10.60;9.80;;;;;;;-146.72;100.00;64895.28;5074509;28;20440;-74
2022/07/23 13:49:30;;;;;;;11.17;10.33;;;;;;;-146.72;100.00;64895.28;5090391;28;20448;-74
2022/07/23 13:52:00;;;;;;;9.83;8.93;;;;;;;-146.72;100.00;64895.28;5073725;28;20427;-74
2022/07/23 13:54:26;;;;;;;11.07;10.20;;;;;;;-146.72;100.00;64895.28;5090539;28;20431;-74
2022/07/23 13:56:54;;;;;;;9.43;8.70;;;;;;;-146.72;100.00;64895.28;5091649;28;20473;-74
2022/07/23 13:59:21;;;;;;;11.93;10.70;;;;;;;-146.72;100.00;64895.28;5090264;28;20464;-74
2022/07/23 14:01:53;;;;;;;9.87;9.00;;;;;;;-146.72;100.00;64895.28;5090857;28;20419;-74
2022/07/23 14:04:39;;;;;;;10.80;9.27;;;;;;;-146.72;100.00;64895.28;5089986;28;20873;-74
2022/07/23 14:07:08;;;;;;;9.47;8.67;;;;;;;-146.72;100.00;64895.28;5090319;28;20433;-74
2022/07/23 14:09:35;;;;;;;11.17;10.30;;;;;;;-146.72;100.00;64895.28;5090047;28;20520;-74
2022/07/23 14:12:03;;;;;;;9.40;8.70;;;;;;;-146.72;100.00;64895.28;5090260;28;20447;-76
2022/07/23 14:14:30;;;;;;;10.30;9.43;;;;;;;-146.72;100.00;64895.28;5090096;28;20428;-74
2022/07/23 14:16:57;;;;;;;9.50;8.60;;;;;;;-146.72;100.00;64895.28;5073495;28;20439;-74